sensor_id;sensor_type;location;lat;lon;timestamp;P1;durP1;ratioP1;P2;durP2;ratioP2
64875;SDS011;51369;49.862;9.908;2023-12-14T00:00:55;14.07;;;6.88;;
64875;SDS011;51369;49.862;9.908;2023-12-14T00:03:20;11.50;;;6.40;;
64875;SDS011;51369;49.862;9.908;2023-12-14T00:05:45;9.93;;;6.68;;
64875;SDS011;51369;49.862;9.908;2023-12-14T00:08:11;13.52;;;6.13;;
64875;SDS011;51369;49.862;9.908;2023-12-14T00:10:36;9.93;;;5.30;;
64875;SDS011;51369;49.862;9.908;2023-12-14T00:13:02;10.70;;;6.07;;
64875;SDS011;51369;49.862;9.908;2023-12-14T00:15:29;13.50;;;5.80;;
64875;SDS011;51369;49.862;9.908;2023-12-14T00:17:54;12.32;;;6.93;;
64875;SDS011;51369;49.862;9.908;2023-12-14T00:20:20;9.20;;;5.35;;
64875;SDS011;51369;49.862;9.908;2023-12-14T00:22:45;11.23;;;6.20;;
64875;SDS011;51369;49.862;9.908;2023-12-14T00:25:11;11.70;;;6.03;;
64875;SDS011;51369;49.862;9.908;2023-12-14T00:27:36;10.38;;;5.72;;
64875;SDS011;51369;49.862;9.908;2023-12-14T00:30:01;9.05;;;6.28;;
64875;SDS011;51369;49.862;9.908;2023-12-14T00:32:27;9.45;;;5.82;;
64875;SDS011;51369;49.862;9.908;2023-12-14T00:34:53;16.05;;;6.22;;
64875;SDS011;51369;49.862;9.908;2023-12-14T00:37:18;12.50;;;6.38;;
64875;SDS011;51369;49.862;9.908;2023-12-14T00:39:43;13.48;;;6.32;;
64875;SDS011;51369;49.862;9.908;2023-12-14T00:42:09;13.25;;;6.82;;
64875;SDS011;51369;49.862;9.908;2023-12-14T00:44:34;15.63;;;8.82;;
64875;SDS011;51369;49.862;9.908;2023-12-14T00:46:59;11.75;;;7.38;;
64875;SDS011;51369;49.862;9.908;2023-12-14T00:49:25;12.52;;;6.70;;
64875;SDS011;51369;49.862;9.908;2023-12-14T00:51:53;19.33;;;8.02;;
64875;SDS011;51369;49.862;9.908;2023-12-14T00:54:18;13.48;;;7.60;;
64875;SDS011;51369;49.862;9.908;2023-12-14T00:56:43;12.77;;;7.85;;
64875;SDS011;51369;49.862;9.908;2023-12-14T00:59:09;13.18;;;7.47;;
64875;SDS011;51369;49.862;9.908;2023-12-14T01:01:34;10.88;;;6.97;;
64875;SDS011;51369;49.862;9.908;2023-12-14T01:03:59;13.90;;;7.53;;
64875;SDS011;51369;49.862;9.908;2023-12-14T01:06:25;11.50;;;6.80;;
64875;SDS011;51369;49.862;9.908;2023-12-14T01:08:50;15.10;;;7.05;;
64875;SDS011;51369;49.862;9.908;2023-12-14T01:11:16;12.57;;;7.70;;
64875;SDS011;51369;49.862;9.908;2023-12-14T01:13:41;12.00;;;7.70;;
64875;SDS011;51369;49.862;9.908;2023-12-14T01:16:07;13.55;;;7.32;;
64875;SDS011;51369;49.862;9.908;2023-12-14T01:18:32;15.25;;;7.45;;
64875;SDS011;51369;49.862;9.908;2023-12-14T01:20:58;13.30;;;8.00;;
64875;SDS011;51369;49.862;9.908;2023-12-14T01:23:23;17.17;;;7.47;;
64875;SDS011;51369;49.862;9.908;2023-12-14T01:25:48;11.70;;;7.15;;
64875;SDS011;51369;49.862;9.908;2023-12-14T01:28:14;12.20;;;7.10;;
64875;SDS011;51369;49.862;9.908;2023-12-14T01:30:39;13.88;;;7.43;;
64875;SDS011;51369;49.862;9.908;2023-12-14T01:33:05;13.30;;;7.05;;
64875;SDS011;51369;49.862;9.908;2023-12-14T01:35:30;13.23;;;7.13;;
64875;SDS011;51369;49.862;9.908;2023-12-14T01:37:55;14.65;;;7.30;;
64875;SDS011;51369;49.862;9.908;2023-12-14T01:40:21;11.27;;;7.25;;
64875;SDS011;51369;49.862;9.908;2023-12-14T01:42:46;13.60;;;6.75;;
64875;SDS011;51369;49.862;9.908;2023-12-14T01:45:11;16.75;;;7.55;;
64875;SDS011;51369;49.862;9.908;2023-12-14T01:47:40;12.50;;;6.72;;
64875;SDS011;51369;49.862;9.908;2023-12-14T01:50:05;14.38;;;6.90;;
64875;SDS011;51369;49.862;9.908;2023-12-14T01:52:31;12.02;;;6.85;;
64875;SDS011;51369;49.862;9.908;2023-12-14T01:54:56;18.52;;;8.20;;
64875;SDS011;51369;49.862;9.908;2023-12-14T01:57:24;11.30;;;6.45;;
64875;SDS011;51369;49.862;9.908;2023-12-14T01:59:49;12.95;;;7.18;;
64875;SDS011;51369;49.862;9.908;2023-12-14T02:02:14;10.73;;;6.97;;
64875;SDS011;51369;49.862;9.908;2023-12-14T02:04:40;13.88;;;6.78;;
64875;SDS011;51369;49.862;9.908;2023-12-14T02:07:06;12.93;;;7.40;;
64875;SDS011;51369;49.862;9.908;2023-12-14T02:09:31;15.02;;;7.35;;
64875;SDS011;51369;49.862;9.908;2023-12-14T02:11:57;11.98;;;6.93;;
64875;SDS011;51369;49.862;9.908;2023-12-14T02:14:22;14.63;;;7.60;;
64875;SDS011;51369;49.862;9.908;2023-12-14T02:16:48;14.13;;;7.07;;
64875;SDS011;51369;49.862;9.908;2023-12-14T02:19:13;15.55;;;7.57;;
64875;SDS011;51369;49.862;9.908;2023-12-14T02:21:39;14.13;;;7.60;;
64875;SDS011;51369;49.862;9.908;2023-12-14T02:24:04;12.93;;;6.80;;
64875;SDS011;51369;49.862;9.908;2023-12-14T02:26:30;15.75;;;7.65;;
64875;SDS011;51369;49.862;9.908;2023-12-14T02:28:55;14.20;;;7.97;;
64875;SDS011;51369;49.862;9.908;2023-12-14T02:31:20;15.88;;;8.10;;
64875;SDS011;51369;49.862;9.908;2023-12-14T02:33:46;15.30;;;8.98;;
64875;SDS011;51369;49.862;9.908;2023-12-14T02:36:12;16.08;;;8.20;;
64875;SDS011;51369;49.862;9.908;2023-12-14T02:38:37;15.93;;;8.25;;
64875;SDS011;51369;49.862;9.908;2023-12-14T02:41:02;15.00;;;8.18;;
64875;SDS011;51369;49.862;9.908;2023-12-14T02:43:28;16.55;;;8.63;;
64875;SDS011;51369;49.862;9.908;2023-12-14T02:45:53;21.67;;;9.32;;
64875;SDS011;51369;49.862;9.908;2023-12-14T02:48:20;24.52;;;8.88;;
64875;SDS011;51369;49.862;9.908;2023-12-14T02:50:45;17.92;;;8.88;;
64875;SDS011;51369;49.862;9.908;2023-12-14T02:53:11;14.20;;;8.57;;
64875;SDS011;51369;49.862;9.908;2023-12-14T02:55:36;17.25;;;8.75;;
64875;SDS011;51369;49.862;9.908;2023-12-14T02:58:01;21.48;;;8.30;;
64875;SDS011;51369;49.862;9.908;2023-12-14T03:00:27;17.13;;;8.52;;
64875;SDS011;51369;49.862;9.908;2023-12-14T03:02:52;18.70;;;9.50;;
64875;SDS011;51369;49.862;9.908;2023-12-14T03:05:18;21.13;;;9.50;;
64875;SDS011;51369;49.862;9.908;2023-12-14T03:07:43;19.20;;;9.80;;
64875;SDS011;51369;49.862;9.908;2023-12-14T03:10:09;18.75;;;7.57;;
64875;SDS011;51369;49.862;9.908;2023-12-14T03:12:34;15.98;;;7.78;;
64875;SDS011;51369;49.862;9.908;2023-12-14T03:14:59;11.85;;;7.40;;
64875;SDS011;51369;49.862;9.908;2023-12-14T03:17:25;17.95;;;8.13;;
64875;SDS011;51369;49.862;9.908;2023-12-14T03:19:51;16.15;;;9.10;;
64875;SDS011;51369;49.862;9.908;2023-12-14T03:22:17;19.25;;;9.07;;
64875;SDS011;51369;49.862;9.908;2023-12-14T03:24:42;23.05;;;9.73;;
64875;SDS011;51369;49.862;9.908;2023-12-14T03:27:08;19.00;;;9.27;;
64875;SDS011;51369;49.862;9.908;2023-12-14T03:29:33;21.48;;;9.52;;
64875;SDS011;51369;49.862;9.908;2023-12-14T03:31:58;20.80;;;9.98;;
64875;SDS011;51369;49.862;9.908;2023-12-14T03:34:24;21.80;;;8.50;;
64875;SDS011;51369;49.862;9.908;2023-12-14T03:36:50;14.25;;;8.32;;
64875;SDS011;51369;49.862;9.908;2023-12-14T03:39:16;16.90;;;9.73;;
64875;SDS011;51369;49.862;9.908;2023-12-14T03:41:41;17.40;;;9.52;;
64875;SDS011;51369;49.862;9.908;2023-12-14T03:44:07;23.67;;;9.93;;
64875;SDS011;51369;49.862;9.908;2023-12-14T03:46:33;21.20;;;9.77;;
64875;SDS011;51369;49.862;9.908;2023-12-14T03:48:59;22.55;;;10.10;;
64875;SDS011;51369;49.862;9.908;2023-12-14T03:51:24;22.42;;;9.13;;
64875;SDS011;51369;49.862;9.908;2023-12-14T03:53:50;18.27;;;9.52;;
64875;SDS011;51369;49.862;9.908;2023-12-14T03:56:15;21.60;;;9.98;;
64875;SDS011;51369;49.862;9.908;2023-12-14T03:58:40;27.48;;;11.50;;
64875;SDS011;51369;49.862;9.908;2023-12-14T04:01:06;24.25;;;10.70;;
64875;SDS011;51369;49.862;9.908;2023-12-14T04:03:31;23.40;;;11.25;;
64875;SDS011;51369;49.862;9.908;2023-12-14T04:05:57;28.85;;;11.95;;
64875;SDS011;51369;49.862;9.908;2023-12-14T04:08:22;23.75;;;11.38;;
64875;SDS011;51369;49.862;9.908;2023-12-14T04:10:48;21.45;;;11.80;;
64875;SDS011;51369;49.862;9.908;2023-12-14T04:13:13;27.90;;;11.65;;
64875;SDS011;51369;49.862;9.908;2023-12-14T04:15:38;28.75;;;11.98;;
64875;SDS011;51369;49.862;9.908;2023-12-14T04:18:04;25.77;;;11.27;;
64875;SDS011;51369;49.862;9.908;2023-12-14T04:20:32;29.23;;;12.85;;
64875;SDS011;51369;49.862;9.908;2023-12-14T04:22:57;24.45;;;12.02;;
64875;SDS011;51369;49.862;9.908;2023-12-14T04:25:23;21.02;;;10.80;;
64875;SDS011;51369;49.862;9.908;2023-12-14T04:27:48;21.08;;;11.27;;
64875;SDS011;51369;49.862;9.908;2023-12-14T04:30:14;22.20;;;11.02;;
64875;SDS011;51369;49.862;9.908;2023-12-14T04:32:39;24.35;;;11.10;;
64875;SDS011;51369;49.862;9.908;2023-12-14T04:35:05;25.02;;;11.43;;
64875;SDS011;51369;49.862;9.908;2023-12-14T04:37:31;29.92;;;11.10;;
64875;SDS011;51369;49.862;9.908;2023-12-14T04:39:59;21.17;;;10.75;;
64875;SDS011;51369;49.862;9.908;2023-12-14T04:42:24;22.67;;;10.60;;
64875;SDS011;51369;49.862;9.908;2023-12-14T04:44:50;21.17;;;10.32;;
64875;SDS011;51369;49.862;9.908;2023-12-14T04:47:15;21.58;;;10.48;;
64875;SDS011;51369;49.862;9.908;2023-12-14T04:49:41;24.90;;;10.77;;
64875;SDS011;51369;49.862;9.908;2023-12-14T04:52:07;19.83;;;10.40;;
64875;SDS011;51369;49.862;9.908;2023-12-14T04:54:33;22.30;;;11.45;;
64875;SDS011;51369;49.862;9.908;2023-12-14T04:57:00;23.70;;;12.07;;
64875;SDS011;51369;49.862;9.908;2023-12-14T04:59:26;24.15;;;11.13;;
64875;SDS011;51369;49.862;9.908;2023-12-14T05:01:51;26.80;;;11.40;;
64875;SDS011;51369;49.862;9.908;2023-12-14T05:04:16;21.50;;;11.30;;
64875;SDS011;51369;49.862;9.908;2023-12-14T05:06:42;25.20;;;11.40;;
64875;SDS011;51369;49.862;9.908;2023-12-14T05:09:07;26.10;;;11.50;;
64875;SDS011;51369;49.862;9.908;2023-12-14T05:11:32;23.08;;;11.23;;
64875;SDS011;51369;49.862;9.908;2023-12-14T05:13:58;23.67;;;11.38;;
64875;SDS011;51369;49.862;9.908;2023-12-14T05:16:23;20.65;;;11.27;;
64875;SDS011;51369;49.862;9.908;2023-12-14T05:18:55;25.85;;;10.95;;
64875;SDS011;51369;49.862;9.908;2023-12-14T05:21:20;25.42;;;10.98;;
64875;SDS011;51369;49.862;9.908;2023-12-14T05:23:46;19.77;;;11.25;;
64875;SDS011;51369;49.862;9.908;2023-12-14T05:26:11;20.30;;;11.27;;
64875;SDS011;51369;49.862;9.908;2023-12-14T05:28:36;22.27;;;11.60;;
64875;SDS011;51369;49.862;9.908;2023-12-14T05:31:02;22.90;;;11.73;;
64875;SDS011;51369;49.862;9.908;2023-12-14T05:33:28;25.23;;;12.75;;
64875;SDS011;51369;49.862;9.908;2023-12-14T05:35:54;23.55;;;12.05;;
64875;SDS011;51369;49.862;9.908;2023-12-14T05:38:19;27.77;;;12.85;;
64875;SDS011;51369;49.862;9.908;2023-12-14T05:40:45;28.02;;;13.27;;
64875;SDS011;51369;49.862;9.908;2023-12-14T05:43:10;21.48;;;11.00;;
64875;SDS011;51369;49.862;9.908;2023-12-14T05:45:36;23.85;;;12.18;;
64875;SDS011;51369;49.862;9.908;2023-12-14T05:48:01;23.08;;;12.15;;
64875;SDS011;51369;49.862;9.908;2023-12-14T05:50:27;20.27;;;12.38;;
64875;SDS011;51369;49.862;9.908;2023-12-14T05:52:53;27.55;;;13.07;;
64875;SDS011;51369;49.862;9.908;2023-12-14T05:55:19;27.52;;;13.13;;
64875;SDS011;51369;49.862;9.908;2023-12-14T05:57:47;25.13;;;12.85;;
64875;SDS011;51369;49.862;9.908;2023-12-14T06:00:13;30.20;;;12.93;;
64875;SDS011;51369;49.862;9.908;2023-12-14T06:02:38;22.95;;;12.75;;
64875;SDS011;51369;49.862;9.908;2023-12-14T06:05:04;25.75;;;13.23;;
64875;SDS011;51369;49.862;9.908;2023-12-14T06:07:31;24.48;;;12.35;;
64875;SDS011;51369;49.862;9.908;2023-12-14T06:09:56;24.17;;;13.25;;
64875;SDS011;51369;49.862;9.908;2023-12-14T06:12:22;24.90;;;13.20;;
64875;SDS011;51369;49.862;9.908;2023-12-14T06:14:48;25.58;;;12.85;;
64875;SDS011;51369;49.862;9.908;2023-12-14T06:17:13;23.73;;;11.55;;
64875;SDS011;51369;49.862;9.908;2023-12-14T06:19:38;21.42;;;10.73;;
64875;SDS011;51369;49.862;9.908;2023-12-14T06:22:04;21.95;;;12.07;;
64875;SDS011;51369;49.862;9.908;2023-12-14T06:24:29;26.70;;;12.10;;
64875;SDS011;51369;49.862;9.908;2023-12-14T06:26:54;29.38;;;13.10;;
64875;SDS011;51369;49.862;9.908;2023-12-14T06:29:20;22.65;;;12.10;;
64875;SDS011;51369;49.862;9.908;2023-12-14T06:31:46;25.52;;;12.00;;
64875;SDS011;51369;49.862;9.908;2023-12-14T06:34:11;21.58;;;11.98;;
64875;SDS011;51369;49.862;9.908;2023-12-14T06:36:37;23.30;;;11.55;;
64875;SDS011;51369;49.862;9.908;2023-12-14T06:39:07;22.27;;;12.98;;
64875;SDS011;51369;49.862;9.908;2023-12-14T06:41:33;23.38;;;12.13;;
64875;SDS011;51369;49.862;9.908;2023-12-14T06:43:58;23.92;;;12.02;;
64875;SDS011;51369;49.862;9.908;2023-12-14T06:46:23;18.35;;;11.02;;
64875;SDS011;51369;49.862;9.908;2023-12-14T06:48:49;24.58;;;10.98;;
64875;SDS011;51369;49.862;9.908;2023-12-14T06:51:14;22.23;;;12.30;;
64875;SDS011;51369;49.862;9.908;2023-12-14T06:53:40;24.45;;;11.43;;
64875;SDS011;51369;49.862;9.908;2023-12-14T06:56:08;27.55;;;10.25;;
64875;SDS011;51369;49.862;9.908;2023-12-14T06:58:39;25.50;;;11.55;;
64875;SDS011;51369;49.862;9.908;2023-12-14T07:01:06;25.63;;;13.75;;
64875;SDS011;51369;49.862;9.908;2023-12-14T07:03:32;24.33;;;13.98;;
64875;SDS011;51369;49.862;9.908;2023-12-14T07:05:57;30.70;;;13.50;;
64875;SDS011;51369;49.862;9.908;2023-12-14T07:08:23;28.98;;;11.82;;
64875;SDS011;51369;49.862;9.908;2023-12-14T07:10:49;23.50;;;12.02;;
64875;SDS011;51369;49.862;9.908;2023-12-14T07:13:15;33.53;;;12.18;;
64875;SDS011;51369;49.862;9.908;2023-12-14T07:15:40;28.52;;;12.02;;
64875;SDS011;51369;49.862;9.908;2023-12-14T07:18:06;25.88;;;12.55;;
64875;SDS011;51369;49.862;9.908;2023-12-14T07:20:31;26.67;;;13.23;;
64875;SDS011;51369;49.862;9.908;2023-12-14T07:22:57;25.42;;;13.00;;
64875;SDS011;51369;49.862;9.908;2023-12-14T07:25:22;29.63;;;14.30;;
64875;SDS011;51369;49.862;9.908;2023-12-14T07:27:47;27.48;;;13.10;;
64875;SDS011;51369;49.862;9.908;2023-12-14T07:30:13;31.15;;;13.75;;
64875;SDS011;51369;49.862;9.908;2023-12-14T07:32:39;25.00;;;13.25;;
64875;SDS011;51369;49.862;9.908;2023-12-14T07:35:05;34.00;;;14.35;;
64875;SDS011;51369;49.862;9.908;2023-12-14T07:37:30;31.45;;;13.85;;
64875;SDS011;51369;49.862;9.908;2023-12-14T07:39:56;26.42;;;13.60;;
64875;SDS011;51369;49.862;9.908;2023-12-14T07:42:22;28.92;;;14.48;;
64875;SDS011;51369;49.862;9.908;2023-12-14T07:44:48;44.20;;;16.58;;
64875;SDS011;51369;49.862;9.908;2023-12-14T07:47:13;40.05;;;17.35;;
64875;SDS011;51369;49.862;9.908;2023-12-14T07:49:39;38.60;;;18.23;;
64875;SDS011;51369;49.862;9.908;2023-12-14T07:52:04;28.60;;;13.88;;
64875;SDS011;51369;49.862;9.908;2023-12-14T07:54:30;25.40;;;12.90;;
64875;SDS011;51369;49.862;9.908;2023-12-14T07:56:55;30.98;;;14.00;;
64875;SDS011;51369;49.862;9.908;2023-12-14T07:59:20;27.95;;;13.15;;
64875;SDS011;51369;49.862;9.908;2023-12-14T08:01:46;30.23;;;15.10;;
64875;SDS011;51369;49.862;9.908;2023-12-14T08:04:12;29.25;;;14.70;;
64875;SDS011;51369;49.862;9.908;2023-12-14T08:06:37;35.58;;;16.42;;
64875;SDS011;51369;49.862;9.908;2023-12-14T08:09:06;32.70;;;17.13;;
64875;SDS011;51369;49.862;9.908;2023-12-14T08:11:32;28.60;;;15.98;;
64875;SDS011;51369;49.862;9.908;2023-12-14T08:13:57;36.58;;;16.25;;
64875;SDS011;51369;49.862;9.908;2023-12-14T08:16:23;35.70;;;15.75;;
64875;SDS011;51369;49.862;9.908;2023-12-14T08:18:48;36.10;;;16.50;;
64875;SDS011;51369;49.862;9.908;2023-12-14T08:21:14;33.72;;;16.17;;
64875;SDS011;51369;49.862;9.908;2023-12-14T08:23:39;31.52;;;16.30;;
64875;SDS011;51369;49.862;9.908;2023-12-14T08:26:06;30.63;;;15.55;;
64875;SDS011;51369;49.862;9.908;2023-12-14T08:28:33;29.15;;;14.30;;
64875;SDS011;51369;49.862;9.908;2023-12-14T08:30:59;29.48;;;14.27;;
64875;SDS011;51369;49.862;9.908;2023-12-14T08:33:27;37.22;;;14.93;;
64875;SDS011;51369;49.862;9.908;2023-12-14T08:35:53;32.58;;;14.00;;
64875;SDS011;51369;49.862;9.908;2023-12-14T08:38:18;35.28;;;15.43;;
64875;SDS011;51369;49.862;9.908;2023-12-14T08:40:44;32.15;;;14.65;;
64875;SDS011;51369;49.862;9.908;2023-12-14T08:43:10;31.95;;;13.88;;
64875;SDS011;51369;49.862;9.908;2023-12-14T08:45:35;38.05;;;14.82;;
64875;SDS011;51369;49.862;9.908;2023-12-14T08:48:00;27.92;;;14.30;;
64875;SDS011;51369;49.862;9.908;2023-12-14T08:50:27;33.40;;;15.15;;
64875;SDS011;51369;49.862;9.908;2023-12-14T08:52:52;31.38;;;15.65;;
64875;SDS011;51369;49.862;9.908;2023-12-14T08:55:17;42.05;;;16.42;;
64875;SDS011;51369;49.862;9.908;2023-12-14T08:57:43;37.17;;;16.25;;
64875;SDS011;51369;49.862;9.908;2023-12-14T09:00:09;33.30;;;14.70;;
64875;SDS011;51369;49.862;9.908;2023-12-14T09:02:35;39.47;;;14.80;;
64875;SDS011;51369;49.862;9.908;2023-12-14T09:05:00;35.72;;;15.73;;
64875;SDS011;51369;49.862;9.908;2023-12-14T09:07:26;35.80;;;16.17;;
64875;SDS011;51369;49.862;9.908;2023-12-14T09:09:51;41.72;;;16.15;;
64875;SDS011;51369;49.862;9.908;2023-12-14T09:12:16;35.85;;;15.60;;
64875;SDS011;51369;49.862;9.908;2023-12-14T09:14:42;42.70;;;15.75;;
64875;SDS011;51369;49.862;9.908;2023-12-14T09:17:08;37.45;;;16.10;;
64875;SDS011;51369;49.862;9.908;2023-12-14T09:19:33;39.22;;;15.98;;
64875;SDS011;51369;49.862;9.908;2023-12-14T09:21:58;39.40;;;15.80;;
64875;SDS011;51369;49.862;9.908;2023-12-14T09:24:24;30.15;;;15.10;;
64875;SDS011;51369;49.862;9.908;2023-12-14T09:26:49;33.88;;;13.85;;
64875;SDS011;51369;49.862;9.908;2023-12-14T09:29:14;37.70;;;15.35;;
64875;SDS011;51369;49.862;9.908;2023-12-14T09:31:43;34.72;;;15.80;;
64875;SDS011;51369;49.862;9.908;2023-12-14T09:34:10;43.88;;;14.80;;
64875;SDS011;51369;49.862;9.908;2023-12-14T09:36:36;37.53;;;15.48;;
64875;SDS011;51369;49.862;9.908;2023-12-14T09:39:01;35.15;;;15.57;;
64875;SDS011;51369;49.862;9.908;2023-12-14T09:41:28;41.92;;;16.35;;
64875;SDS011;51369;49.862;9.908;2023-12-14T09:43:53;36.50;;;14.90;;
64875;SDS011;51369;49.862;9.908;2023-12-14T09:46:18;38.28;;;16.23;;
64875;SDS011;51369;49.862;9.908;2023-12-14T09:48:46;34.60;;;16.67;;
64875;SDS011;51369;49.862;9.908;2023-12-14T09:51:12;32.35;;;15.68;;
64875;SDS011;51369;49.862;9.908;2023-12-14T09:53:38;31.42;;;14.15;;
64875;SDS011;51369;49.862;9.908;2023-12-14T09:56:03;33.90;;;13.80;;
64875;SDS011;51369;49.862;9.908;2023-12-14T09:58:33;29.90;;;14.43;;
64875;SDS011;51369;49.862;9.908;2023-12-14T10:00:59;33.88;;;14.65;;
64875;SDS011;51369;49.862;9.908;2023-12-14T10:03:27;33.17;;;14.77;;
64875;SDS011;51369;49.862;9.908;2023-12-14T10:05:54;28.80;;;13.93;;
64875;SDS011;51369;49.862;9.908;2023-12-14T10:08:20;29.90;;;14.18;;
64875;SDS011;51369;49.862;9.908;2023-12-14T10:10:47;36.58;;;14.40;;
64875;SDS011;51369;49.862;9.908;2023-12-14T10:13:18;36.40;;;16.25;;
64875;SDS011;51369;49.862;9.908;2023-12-14T10:15:45;37.33;;;15.15;;
64875;SDS011;51369;49.862;9.908;2023-12-14T10:18:13;37.28;;;14.77;;
64875;SDS011;51369;49.862;9.908;2023-12-14T10:20:46;37.33;;;14.82;;
64875;SDS011;51369;49.862;9.908;2023-12-14T10:23:12;37.38;;;15.73;;
64875;SDS011;51369;49.862;9.908;2023-12-14T10:25:38;39.38;;;15.30;;
64875;SDS011;51369;49.862;9.908;2023-12-14T10:28:03;37.63;;;15.90;;
64875;SDS011;51369;49.862;9.908;2023-12-14T10:30:29;33.00;;;14.45;;
64875;SDS011;51369;49.862;9.908;2023-12-14T10:32:55;37.05;;;14.13;;
64875;SDS011;51369;49.862;9.908;2023-12-14T10:35:21;34.15;;;14.77;;
64875;SDS011;51369;49.862;9.908;2023-12-14T10:37:48;30.73;;;14.70;;
64875;SDS011;51369;49.862;9.908;2023-12-14T10:40:16;30.08;;;14.00;;
64875;SDS011;51369;49.862;9.908;2023-12-14T10:42:42;28.88;;;13.75;;
64875;SDS011;51369;49.862;9.908;2023-12-14T10:45:09;28.95;;;13.55;;
64875;SDS011;51369;49.862;9.908;2023-12-14T10:47:44;33.22;;;14.40;;
64875;SDS011;51369;49.862;9.908;2023-12-14T10:50:10;36.13;;;14.98;;
64875;SDS011;51369;49.862;9.908;2023-12-14T10:52:37;31.20;;;13.63;;
64875;SDS011;51369;49.862;9.908;2023-12-14T10:55:06;33.70;;;13.40;;
64875;SDS011;51369;49.862;9.908;2023-12-14T10:57:35;31.15;;;13.88;;
64875;SDS011;51369;49.862;9.908;2023-12-14T11:00:02;30.75;;;12.80;;
64875;SDS011;51369;49.862;9.908;2023-12-14T11:02:29;33.10;;;12.80;;
64875;SDS011;51369;49.862;9.908;2023-12-14T11:05:02;28.73;;;13.18;;
64875;SDS011;51369;49.862;9.908;2023-12-14T11:07:44;30.40;;;12.63;;
64875;SDS011;51369;49.862;9.908;2023-12-14T11:10:13;32.40;;;14.18;;
64875;SDS011;51369;49.862;9.908;2023-12-14T11:12:49;29.55;;;14.10;;
64875;SDS011;51369;49.862;9.908;2023-12-14T11:15:21;31.88;;;14.40;;
64875;SDS011;51369;49.862;9.908;2023-12-14T11:20:57;28.10;;;13.90;;
64875;SDS011;51369;49.862;9.908;2023-12-14T11:25:51;31.42;;;15.15;;
64875;SDS011;51369;49.862;9.908;2023-12-14T11:28:18;23.73;;;13.55;;
64875;SDS011;51369;49.862;9.908;2023-12-14T11:30:45;26.02;;;13.27;;
64875;SDS011;51369;49.862;9.908;2023-12-14T11:33:11;29.95;;;14.50;;
64875;SDS011;51369;49.862;9.908;2023-12-14T11:35:37;26.83;;;13.68;;
64875;SDS011;51369;49.862;9.908;2023-12-14T11:38:02;24.80;;;13.38;;
64875;SDS011;51369;49.862;9.908;2023-12-14T11:40:36;25.60;;;14.35;;
64875;SDS011;51369;49.862;9.908;2023-12-14T11:43:02;24.10;;;13.77;;
64875;SDS011;51369;49.862;9.908;2023-12-14T11:45:35;23.88;;;13.55;;
64875;SDS011;51369;49.862;9.908;2023-12-14T11:48:01;28.70;;;14.63;;
64875;SDS011;51369;49.862;9.908;2023-12-14T11:50:30;26.30;;;13.25;;
64875;SDS011;51369;49.862;9.908;2023-12-14T11:52:55;26.50;;;14.75;;
64875;SDS011;51369;49.862;9.908;2023-12-14T11:55:21;23.38;;;13.65;;
64875;SDS011;51369;49.862;9.908;2023-12-14T11:57:47;26.20;;;14.73;;
64875;SDS011;51369;49.862;9.908;2023-12-14T12:00:13;28.60;;;16.10;;
64875;SDS011;51369;49.862;9.908;2023-12-14T12:02:39;31.20;;;18.13;;
64875;SDS011;51369;49.862;9.908;2023-12-14T12:05:06;30.48;;;15.90;;
64875;SDS011;51369;49.862;9.908;2023-12-14T12:07:32;31.25;;;17.02;;
64875;SDS011;51369;49.862;9.908;2023-12-14T12:09:58;32.85;;;17.20;;
64875;SDS011;51369;49.862;9.908;2023-12-14T12:12:24;30.63;;;17.13;;
64875;SDS011;51369;49.862;9.908;2023-12-14T12:14:49;29.13;;;15.63;;
64875;SDS011;51369;49.862;9.908;2023-12-14T12:17:18;34.53;;;17.05;;
64875;SDS011;51369;49.862;9.908;2023-12-14T12:19:46;32.35;;;16.23;;
64875;SDS011;51369;49.862;9.908;2023-12-14T12:22:12;29.67;;;16.48;;
64875;SDS011;51369;49.862;9.908;2023-12-14T12:24:37;32.65;;;15.63;;
64875;SDS011;51369;49.862;9.908;2023-12-14T12:27:03;28.80;;;16.48;;
64875;SDS011;51369;49.862;9.908;2023-12-14T12:29:29;28.92;;;16.85;;
64875;SDS011;51369;49.862;9.908;2023-12-14T12:31:55;29.20;;;15.88;;
64875;SDS011;51369;49.862;9.908;2023-12-14T12:34:20;27.05;;;15.05;;
64875;SDS011;51369;49.862;9.908;2023-12-14T12:36:46;25.88;;;13.35;;
64875;SDS011;51369;49.862;9.908;2023-12-14T12:39:11;27.90;;;13.43;;
64875;SDS011;51369;49.862;9.908;2023-12-14T12:41:37;26.73;;;13.95;;
64875;SDS011;51369;49.862;9.908;2023-12-14T12:44:03;25.10;;;14.48;;
64875;SDS011;51369;49.862;9.908;2023-12-14T12:46:33;21.05;;;11.88;;
64875;SDS011;51369;49.862;9.908;2023-12-14T12:49:02;23.77;;;13.70;;
64875;SDS011;51369;49.862;9.908;2023-12-14T12:51:29;25.85;;;12.90;;
64875;SDS011;51369;49.862;9.908;2023-12-14T12:53:56;23.25;;;11.65;;
64875;SDS011;51369;49.862;9.908;2023-12-14T12:56:22;21.13;;;11.65;;
64875;SDS011;51369;49.862;9.908;2023-12-14T12:58:49;25.08;;;12.30;;
64875;SDS011;51369;49.862;9.908;2023-12-14T13:01:15;23.45;;;12.35;;
64875;SDS011;51369;49.862;9.908;2023-12-14T13:03:40;21.88;;;11.40;;
64875;SDS011;51369;49.862;9.908;2023-12-14T13:06:06;20.70;;;11.25;;
64875;SDS011;51369;49.862;9.908;2023-12-14T13:08:31;18.23;;;10.18;;
64875;SDS011;51369;49.862;9.908;2023-12-14T13:10:57;20.92;;;10.30;;
64875;SDS011;51369;49.862;9.908;2023-12-14T13:13:22;20.02;;;11.27;;
64875;SDS011;51369;49.862;9.908;2023-12-14T13:15:48;17.10;;;10.77;;
64875;SDS011;51369;49.862;9.908;2023-12-14T13:18:13;18.23;;;10.07;;
64875;SDS011;51369;49.862;9.908;2023-12-14T13:20:41;16.40;;;9.65;;
64875;SDS011;51369;49.862;9.908;2023-12-14T13:23:07;17.20;;;9.02;;
64875;SDS011;51369;49.862;9.908;2023-12-14T13:25:32;17.00;;;9.40;;
64875;SDS011;51369;49.862;9.908;2023-12-14T13:27:58;18.42;;;9.38;;
64875;SDS011;51369;49.862;9.908;2023-12-14T13:30:24;16.23;;;8.65;;
64875;SDS011;51369;49.862;9.908;2023-12-14T13:32:50;13.55;;;8.85;;
64875;SDS011;51369;49.862;9.908;2023-12-14T13:35:15;15.32;;;9.20;;
64875;SDS011;51369;49.862;9.908;2023-12-14T13:37:41;16.42;;;9.07;;
64875;SDS011;51369;49.862;9.908;2023-12-14T13:40:06;17.63;;;8.55;;
64875;SDS011;51369;49.862;9.908;2023-12-14T13:42:32;13.95;;;8.20;;
64875;SDS011;51369;49.862;9.908;2023-12-14T13:44:57;12.07;;;7.57;;
64875;SDS011;51369;49.862;9.908;2023-12-14T13:47:23;13.15;;;7.68;;
64875;SDS011;51369;49.862;9.908;2023-12-14T13:49:48;13.63;;;7.55;;
64875;SDS011;51369;49.862;9.908;2023-12-14T13:52:13;14.45;;;7.50;;
64875;SDS011;51369;49.862;9.908;2023-12-14T13:54:39;9.70;;;5.97;;
64875;SDS011;51369;49.862;9.908;2023-12-14T13:57:04;12.45;;;6.35;;
64875;SDS011;51369;49.862;9.908;2023-12-14T13:59:30;10.48;;;5.93;;
64875;SDS011;51369;49.862;9.908;2023-12-14T14:01:55;9.30;;;6.50;;
64875;SDS011;51369;49.862;9.908;2023-12-14T14:04:20;11.52;;;6.10;;
64875;SDS011;51369;49.862;9.908;2023-12-14T14:06:46;10.13;;;5.80;;
64875;SDS011;51369;49.862;9.908;2023-12-14T14:09:11;8.27;;;5.75;;
64875;SDS011;51369;49.862;9.908;2023-12-14T14:11:37;8.00;;;5.53;;
64875;SDS011;51369;49.862;9.908;2023-12-14T14:14:03;10.13;;;6.47;;
64875;SDS011;51369;49.862;9.908;2023-12-14T14:16:29;9.00;;;5.82;;
64875;SDS011;51369;49.862;9.908;2023-12-14T14:18:54;7.22;;;5.18;;
64875;SDS011;51369;49.862;9.908;2023-12-14T14:21:20;8.85;;;5.53;;
64875;SDS011;51369;49.862;9.908;2023-12-14T14:23:45;7.68;;;5.55;;